首页
METAR-TAF:

METAR-TAF

机场 :

Grazzanise, 意大利

纬度: 41-03N, 经度: 014-04E, 海拔: 9米

当前天气观测

该预报发布于35分钟前的07:55 UTC
风速3节,风向北转东北
温度 8°C
湿度 81%
气压 1012 hPa
能见度10公里或以上
少量云层高于7000英尺

METAR: LIRM 030755Z 03003KT 9999 FEW070 08/05 Q1012 RMK BKN SCT200 VIS MIN 9999 WIND THR06 04005KT BLU

时间: 10:30 (08:30 UTC)

预报

该预报发布于3小时和30分钟前的05:00 UTC
预报有效从03日的 06点(UTC)到 03日的 15点(UTC)
风速6节,风向北转东北
能见度10公里或以上
1500米以下无云,无积雨云
成为
从 03日的 10点(UTC)到 03日的 12点(UTC)
风速12节,风向东北

TAF: LIRM 030500Z 0306/0315 03006KT CAVOK BECMG 0310/0312 04012KT

超过4000个机场的气象观测和天气预报(METAR&TAF报告)。

可查询的气象台以黄色和红色小点在地图上表示。

将鼠标移到小点上方,可查看气象台名称。

然后点击查看天气观测和预报。

如需切换地图:点击带黑十字的绿色按钮放大地图;点击带横线的绿色按钮缩小地图;或者点击绿色箭头查看邻近地区的地图。


METAR-TAF: